Terminal Aerodrome Forecast
Issued by NWS Cleveland, OH

Home | Current Version | Previous Version | Graphics & Text | Print | Product List | Glossary Off
Versions: 1 2 3 4 5 6 7 8 9 10 11 12 13 14 15

000
FTUS41 KCLE 152320
TAFCAK
TAF
KCAK 152320Z 1600/1624 34004KT P6SM SCT200
     FM160300 04004KT P6SM SCT200
     FM160800 00000KT 4SM BR SCT200
     FM160900 VRB03KT 2SM BR SCT110
     FM161000 VRB03KT 1 1/2SM BR SCT100
     FM161300 VRB03KT 3SM BR SCT090
     FM161400 VRB03KT P6SM SCT130=

USA.gov is the U.S. government's official web portal to all federal, state and local government web resources and services.